sensor_id;sensor_type;location;lat;lon;timestamp;pressure;altitude;pressure_sealevel;temperature;humidity
60417;BME280;46263;44.726;10.396;2023-12-14T00:01:57;99410.94;;;11.18;76.37
60417;BME280;46263;44.726;10.396;2023-12-14T00:04:23;99416.75;;;11.20;75.96
60417;BME280;46263;44.726;10.396;2023-12-14T00:06:48;99424.19;;;11.17;76.35
60417;BME280;46263;44.726;10.396;2023-12-14T00:09:14;99427.13;;;11.12;76.56
60417;BME280;46263;44.726;10.396;2023-12-14T00:11:39;99432.31;;;11.08;77.34
60417;BME280;46263;44.726;10.396;2023-12-14T00:14:05;99428.47;;;11.18;78.17
60417;BME280;46263;44.726;10.396;2023-12-14T00:16:31;99434.22;;;11.13;77.47
60417;BME280;46263;44.726;10.396;2023-12-14T00:18:56;99437.19;;;11.15;78.14
60417;BME280;46263;44.726;10.396;2023-12-14T00:21:22;99446.56;;;11.17;77.84
60417;BME280;46263;44.726;10.396;2023-12-14T00:23:48;99436.53;;;11.22;78.01
60417;BME280;46263;44.726;10.396;2023-12-14T00:26:13;99450.50;;;11.22;77.98
60417;BME280;46263;44.726;10.396;2023-12-14T00:28:39;99456.28;;;11.24;78.34
60417;BME280;46263;44.726;10.396;2023-12-14T00:31:05;99451.81;;;11.21;78.26
60417;BME280;46263;44.726;10.396;2023-12-14T00:33:30;99455.88;;;11.20;78.81
60417;BME280;46263;44.726;10.396;2023-12-14T00:35:56;99456.19;;;11.09;79.60
60417;BME280;46263;44.726;10.396;2023-12-14T00:38:21;99448.84;;;10.99;80.40
60417;BME280;46263;44.726;10.396;2023-12-14T00:40:47;99456.06;;;10.94;81.67
60417;BME280;46263;44.726;10.396;2023-12-14T00:43:12;99465.47;;;11.04;81.76
60417;BME280;46263;44.726;10.396;2023-12-14T00:45:38;99458.47;;;11.18;80.75
60417;BME280;46263;44.726;10.396;2023-12-14T00:48:04;99460.19;;;11.21;80.17
60417;BME280;46263;44.726;10.396;2023-12-14T00:50:29;99462.22;;;11.20;80.49
60417;BME280;46263;44.726;10.396;2023-12-14T00:52:55;99457.00;;;10.97;80.43
60417;BME280;46263;44.726;10.396;2023-12-14T00:55:20;99457.84;;;10.84;81.73
60417;BME280;46263;44.726;10.396;2023-12-14T00:57:46;99466.44;;;10.86;82.09
60417;BME280;46263;44.726;10.396;2023-12-14T01:00:12;99469.09;;;10.92;82.28
60417;BME280;46263;44.726;10.396;2023-12-14T01:02:38;99465.00;;;10.93;83.18
60417;BME280;46263;44.726;10.396;2023-12-14T01:05:04;99474.47;;;11.10;81.93
60417;BME280;46263;44.726;10.396;2023-12-14T01:07:29;99480.34;;;11.27;81.86
60417;BME280;46263;44.726;10.396;2023-12-14T01:09:55;99482.75;;;11.23;81.69
60417;BME280;46263;44.726;10.396;2023-12-14T01:12:20;99484.91;;;11.10;82.11
60417;BME280;46263;44.726;10.396;2023-12-14T01:14:46;99482.13;;;10.89;82.57
60417;BME280;46263;44.726;10.396;2023-12-14T01:17:12;99489.00;;;10.88;83.08
60417;BME280;46263;44.726;10.396;2023-12-14T01:19:40;99489.34;;;11.05;82.25
60417;BME280;46263;44.726;10.396;2023-12-14T01:22:06;99499.81;;;11.12;82.07
60417;BME280;46263;44.726;10.396;2023-12-14T01:24:31;99509.69;;;11.33;81.96
60417;BME280;46263;44.726;10.396;2023-12-14T01:26:57;99506.53;;;11.37;81.82
60417;BME280;46263;44.726;10.396;2023-12-14T01:29:22;99502.19;;;11.28;82.13
60417;BME280;46263;44.726;10.396;2023-12-14T01:31:48;99504.78;;;11.26;82.30
60417;BME280;46263;44.726;10.396;2023-12-14T01:34:14;99495.38;;;11.16;82.52
60417;BME280;46263;44.726;10.396;2023-12-14T01:36:41;99501.34;;;11.13;83.61
60417;BME280;46263;44.726;10.396;2023-12-14T01:39:07;99502.94;;;11.29;82.69
60417;BME280;46263;44.726;10.396;2023-12-14T01:41:32;99506.72;;;11.39;82.42
60417;BME280;46263;44.726;10.396;2023-12-14T01:43:58;99513.53;;;11.51;82.25
60417;BME280;46263;44.726;10.396;2023-12-14T01:46:23;99511.00;;;11.60;81.70
60417;BME280;46263;44.726;10.396;2023-12-14T01:48:49;99511.41;;;11.64;81.12
60417;BME280;46263;44.726;10.396;2023-12-14T01:51:15;99517.88;;;11.31;82.31
60417;BME280;46263;44.726;10.396;2023-12-14T01:53:41;99526.81;;;11.30;83.55
60417;BME280;46263;44.726;10.396;2023-12-14T01:56:07;99531.59;;;11.22;83.04
60417;BME280;46263;44.726;10.396;2023-12-14T01:58:32;99533.28;;;11.25;83.21
60417;BME280;46263;44.726;10.396;2023-12-14T02:03:29;99523.56;;;11.18;84.08
60417;BME280;46263;44.726;10.396;2023-12-14T02:05:55;99531.09;;;11.31;83.41
60417;BME280;46263;44.726;10.396;2023-12-14T02:08:20;99525.78;;;11.40;83.66
60417;BME280;46263;44.726;10.396;2023-12-14T02:10:46;99537.09;;;11.55;82.85
60417;BME280;46263;44.726;10.396;2023-12-14T02:13:13;99531.50;;;11.55;83.09
60417;BME280;46263;44.726;10.396;2023-12-14T02:15:39;99536.75;;;11.59;82.75
60417;BME280;46263;44.726;10.396;2023-12-14T02:18:04;99533.22;;;11.66;82.71
60417;BME280;46263;44.726;10.396;2023-12-14T02:20:30;99529.34;;;11.69;82.98
60417;BME280;46263;44.726;10.396;2023-12-14T02:22:56;99534.53;;;11.65;82.88
60417;BME280;46263;44.726;10.396;2023-12-14T02:25:22;99527.63;;;11.66;82.51
60417;BME280;46263;44.726;10.396;2023-12-14T02:27:49;99531.22;;;11.74;82.46
60417;BME280;46263;44.726;10.396;2023-12-14T02:30:16;99538.91;;;11.81;82.64
60417;BME280;46263;44.726;10.396;2023-12-14T02:32:42;99539.53;;;11.87;81.88
60417;BME280;46263;44.726;10.396;2023-12-14T02:35:08;99540.63;;;11.84;82.19
60417;BME280;46263;44.726;10.396;2023-12-14T02:37:34;99551.09;;;11.83;82.78
60417;BME280;46263;44.726;10.396;2023-12-14T02:40:02;99552.91;;;11.81;82.62
60417;BME280;46263;44.726;10.396;2023-12-14T02:42:29;99560.66;;;11.67;83.03
60417;BME280;46263;44.726;10.396;2023-12-14T02:44:56;99560.13;;;11.69;83.37
60417;BME280;46263;44.726;10.396;2023-12-14T02:47:21;99564.09;;;11.81;82.52
60417;BME280;46263;44.726;10.396;2023-12-14T02:49:47;99563.41;;;11.88;83.03
60417;BME280;46263;44.726;10.396;2023-12-14T02:52:12;99559.28;;;11.81;83.08
60417;BME280;46263;44.726;10.396;2023-12-14T02:54:39;99565.25;;;11.85;82.94
60417;BME280;46263;44.726;10.396;2023-12-14T02:57:04;99568.66;;;11.91;82.78
60417;BME280;46263;44.726;10.396;2023-12-14T02:59:30;99565.66;;;11.89;82.54
60417;BME280;46263;44.726;10.396;2023-12-14T03:01:55;99568.63;;;11.84;83.47
60417;BME280;46263;44.726;10.396;2023-12-14T03:04:21;99558.56;;;11.88;83.18
60417;BME280;46263;44.726;10.396;2023-12-14T03:06:47;99566.41;;;11.90;82.76
60417;BME280;46263;44.726;10.396;2023-12-14T03:09:12;99562.88;;;11.89;83.26
60417;BME280;46263;44.726;10.396;2023-12-14T03:11:38;99566.03;;;11.93;83.02
60417;BME280;46263;44.726;10.396;2023-12-14T03:14:03;99562.34;;;11.98;81.98
60417;BME280;46263;44.726;10.396;2023-12-14T03:16:29;99562.88;;;11.96;82.70
60417;BME280;46263;44.726;10.396;2023-12-14T03:18:54;99560.41;;;11.86;83.21
60417;BME280;46263;44.726;10.396;2023-12-14T03:21:22;99565.50;;;11.94;82.54
60417;BME280;46263;44.726;10.396;2023-12-14T03:23:48;99564.25;;;11.75;82.89
60417;BME280;46263;44.726;10.396;2023-12-14T03:26:13;99559.63;;;11.78;83.15
60417;BME280;46263;44.726;10.396;2023-12-14T03:28:39;99565.25;;;11.85;83.26
60417;BME280;46263;44.726;10.396;2023-12-14T03:31:04;99571.06;;;11.87;83.11
60417;BME280;46263;44.726;10.396;2023-12-14T03:33:30;99564.41;;;11.97;82.89
60417;BME280;46263;44.726;10.396;2023-12-14T03:35:55;99573.59;;;12.05;83.04
60417;BME280;46263;44.726;10.396;2023-12-14T03:38:22;99575.28;;;12.08;82.63
60417;BME280;46263;44.726;10.396;2023-12-14T03:40:47;99573.78;;;12.07;82.78
60417;BME280;46263;44.726;10.396;2023-12-14T03:43:13;99578.00;;;11.93;83.23
60417;BME280;46263;44.726;10.396;2023-12-14T03:45:38;99575.38;;;11.95;83.01
60417;BME280;46263;44.726;10.396;2023-12-14T03:48:04;99576.50;;;11.93;83.08
60417;BME280;46263;44.726;10.396;2023-12-14T03:50:30;99576.22;;;11.76;83.90
60417;BME280;46263;44.726;10.396;2023-12-14T03:52:55;99579.88;;;11.63;84.59
60417;BME280;46263;44.726;10.396;2023-12-14T03:55:21;99579.31;;;11.65;84.81
60417;BME280;46263;44.726;10.396;2023-12-14T03:57:46;99587.75;;;11.72;84.68
60417;BME280;46263;44.726;10.396;2023-12-14T04:00:13;99591.72;;;11.77;84.55
60417;BME280;46263;44.726;10.396;2023-12-14T04:02:39;99599.19;;;11.82;83.85
60417;BME280;46263;44.726;10.396;2023-12-14T04:05:07;99602.91;;;11.77;85.02
60417;BME280;46263;44.726;10.396;2023-12-14T04:07:36;99606.16;;;11.88;83.71
60417;BME280;46263;44.726;10.396;2023-12-14T04:10:01;99604.09;;;11.89;83.90
60417;BME280;46263;44.726;10.396;2023-12-14T04:12:27;99610.09;;;11.93;83.89
60417;BME280;46263;44.726;10.396;2023-12-14T04:14:52;99605.41;;;11.88;83.93
60417;BME280;46263;44.726;10.396;2023-12-14T04:17:18;99615.00;;;11.99;83.74
60417;BME280;46263;44.726;10.396;2023-12-14T04:19:43;99614.56;;;11.88;83.56
60417;BME280;46263;44.726;10.396;2023-12-14T04:22:09;99622.81;;;11.93;83.51
60417;BME280;46263;44.726;10.396;2023-12-14T04:24:34;99628.78;;;11.97;83.36
60417;BME280;46263;44.726;10.396;2023-12-14T04:27:00;99638.69;;;11.98;83.90
60417;BME280;46263;44.726;10.396;2023-12-14T04:29:25;99637.69;;;11.89;84.25
60417;BME280;46263;44.726;10.396;2023-12-14T04:31:51;99645.38;;;11.95;84.19
60417;BME280;46263;44.726;10.396;2023-12-14T04:34:18;99649.91;;;11.98;84.88
60417;BME280;46263;44.726;10.396;2023-12-14T04:36:47;99646.03;;;12.09;84.47
60417;BME280;46263;44.726;10.396;2023-12-14T04:39:13;99651.19;;;11.97;84.65
60417;BME280;46263;44.726;10.396;2023-12-14T04:41:39;99657.59;;;12.05;84.00
60417;BME280;46263;44.726;10.396;2023-12-14T04:44:04;99651.50;;;11.87;85.49
60417;BME280;46263;44.726;10.396;2023-12-14T04:46:30;99658.34;;;11.78;86.84
60417;BME280;46263;44.726;10.396;2023-12-14T04:48:55;99663.50;;;11.94;85.84
60417;BME280;46263;44.726;10.396;2023-12-14T04:51:21;99667.63;;;11.93;85.28
60417;BME280;46263;44.726;10.396;2023-12-14T04:53:47;99674.31;;;11.91;85.70
60417;BME280;46263;44.726;10.396;2023-12-14T04:56:13;99674.00;;;12.01;85.58
60417;BME280;46263;44.726;10.396;2023-12-14T04:58:39;99676.25;;;12.03;85.29
60417;BME280;46263;44.726;10.396;2023-12-14T05:01:06;99674.00;;;12.01;85.15
60417;BME280;46263;44.726;10.396;2023-12-14T05:03:32;99681.00;;;11.88;85.42
60417;BME280;46263;44.726;10.396;2023-12-14T05:05:58;99679.78;;;12.03;85.29
60417;BME280;46263;44.726;10.396;2023-12-14T05:08:23;99686.66;;;11.95;85.76
60417;BME280;46263;44.726;10.396;2023-12-14T05:10:49;99695.63;;;11.93;86.37
60417;BME280;46263;44.726;10.396;2023-12-14T05:13:15;99707.50;;;11.87;86.13
60417;BME280;46263;44.726;10.396;2023-12-14T05:15:41;99708.97;;;11.88;86.43
60417;BME280;46263;44.726;10.396;2023-12-14T05:18:07;99703.09;;;11.98;86.27
60417;BME280;46263;44.726;10.396;2023-12-14T05:20:32;99710.22;;;11.99;86.27
60417;BME280;46263;44.726;10.396;2023-12-14T05:22:58;99709.31;;;12.04;85.98
60417;BME280;46263;44.726;10.396;2023-12-14T05:25:23;99706.84;;;12.01;85.83
60417;BME280;46263;44.726;10.396;2023-12-14T05:27:49;99709.94;;;12.10;85.27
60417;BME280;46263;44.726;10.396;2023-12-14T05:30:14;99716.47;;;12.13;85.99
60417;BME280;46263;44.726;10.396;2023-12-14T05:32:40;99716.06;;;12.09;86.13
60417;BME280;46263;44.726;10.396;2023-12-14T05:35:06;99727.34;;;12.16;85.29
60417;BME280;46263;44.726;10.396;2023-12-14T05:37:31;99735.88;;;12.11;85.93
60417;BME280;46263;44.726;10.396;2023-12-14T05:39:57;99731.84;;;12.19;85.25
60417;BME280;46263;44.726;10.396;2023-12-14T05:42:22;99734.47;;;11.97;86.12
60417;BME280;46263;44.726;10.396;2023-12-14T05:44:48;99734.41;;;11.90;87.02
60417;BME280;46263;44.726;10.396;2023-12-14T05:47:14;99734.19;;;11.67;87.80
60417;BME280;46263;44.726;10.396;2023-12-14T05:49:43;99741.63;;;11.65;88.27
60417;BME280;46263;44.726;10.396;2023-12-14T05:52:09;99744.09;;;11.89;87.45
60417;BME280;46263;44.726;10.396;2023-12-14T05:54:38;99740.06;;;11.97;86.40
60417;BME280;46263;44.726;10.396;2023-12-14T05:57:05;99747.44;;;12.07;85.93
60417;BME280;46263;44.726;10.396;2023-12-14T05:59:30;99746.72;;;11.87;86.80
60417;BME280;46263;44.726;10.396;2023-12-14T06:02:00;99753.03;;;11.87;86.96
60417;BME280;46263;44.726;10.396;2023-12-14T06:04:27;99765.53;;;12.06;86.58
60417;BME280;46263;44.726;10.396;2023-12-14T06:06:53;99764.38;;;12.02;85.83
60417;BME280;46263;44.726;10.396;2023-12-14T06:09:19;99765.06;;;11.95;86.54
60417;BME280;46263;44.726;10.396;2023-12-14T06:11:51;99774.41;;;11.97;86.97
60417;BME280;46263;44.726;10.396;2023-12-14T06:14:17;99786.44;;;12.05;85.71
60417;BME280;46263;44.726;10.396;2023-12-14T06:16:43;99784.06;;;12.09;86.35
60417;BME280;46263;44.726;10.396;2023-12-14T06:19:08;99784.53;;;12.00;86.11
60417;BME280;46263;44.726;10.396;2023-12-14T06:21:34;99780.13;;;12.12;85.70
60417;BME280;46263;44.726;10.396;2023-12-14T06:23:59;99782.28;;;12.19;85.03
60417;BME280;46263;44.726;10.396;2023-12-14T06:26:25;99777.97;;;12.18;84.94
60417;BME280;46263;44.726;10.396;2023-12-14T06:28:51;99782.81;;;12.18;85.30
60417;BME280;46263;44.726;10.396;2023-12-14T06:31:17;99783.91;;;12.15;85.51
60417;BME280;46263;44.726;10.396;2023-12-14T06:33:43;99785.34;;;12.08;85.61
60417;BME280;46263;44.726;10.396;2023-12-14T06:36:09;99793.75;;;12.08;85.31
60417;BME280;46263;44.726;10.396;2023-12-14T06:38:38;99799.56;;;12.10;85.49
60417;BME280;46263;44.726;10.396;2023-12-14T06:41:04;99805.00;;;12.16;85.33
60417;BME280;46263;44.726;10.396;2023-12-14T06:43:29;99808.09;;;12.25;85.06
60417;BME280;46263;44.726;10.396;2023-12-14T06:45:55;99815.38;;;12.28;84.43
60417;BME280;46263;44.726;10.396;2023-12-14T06:48:21;99823.31;;;12.37;84.05
60417;BME280;46263;44.726;10.396;2023-12-14T06:50:47;99822.41;;;12.42;84.12
60417;BME280;46263;44.726;10.396;2023-12-14T06:53:12;99825.00;;;12.40;84.04
60417;BME280;46263;44.726;10.396;2023-12-14T06:55:38;99825.97;;;12.43;83.94
60417;BME280;46263;44.726;10.396;2023-12-14T06:58:03;99823.59;;;12.47;83.33
60417;BME280;46263;44.726;10.396;2023-12-14T07:00:29;99834.94;;;12.41;83.76
60417;BME280;46263;44.726;10.396;2023-12-14T07:02:55;99837.94;;;12.43;83.69
60417;BME280;46263;44.726;10.396;2023-12-14T07:05:20;99842.63;;;12.48;83.41
60417;BME280;46263;44.726;10.396;2023-12-14T07:07:46;99839.03;;;12.40;84.00
60417;BME280;46263;44.726;10.396;2023-12-14T07:10:11;99844.50;;;12.46;83.00
60417;BME280;46263;44.726;10.396;2023-12-14T07:12:37;99836.81;;;12.46;83.18
60417;BME280;46263;44.726;10.396;2023-12-14T07:15:03;99847.34;;;12.33;83.55
60417;BME280;46263;44.726;10.396;2023-12-14T07:17:28;99852.09;;;12.38;83.29
60417;BME280;46263;44.726;10.396;2023-12-14T07:19:54;99863.69;;;12.42;83.25
60417;BME280;46263;44.726;10.396;2023-12-14T07:22:19;99866.69;;;12.44;83.27
60417;BME280;46263;44.726;10.396;2023-12-14T07:24:45;99874.97;;;12.49;83.93
60417;BME280;46263;44.726;10.396;2023-12-14T07:27:10;99886.59;;;12.33;84.13
60417;BME280;46263;44.726;10.396;2023-12-14T07:29:36;99879.75;;;12.41;83.39
60417;BME280;46263;44.726;10.396;2023-12-14T07:32:01;99879.97;;;12.43;82.99
60417;BME280;46263;44.726;10.396;2023-12-14T07:34:27;99885.97;;;12.47;82.79
60417;BME280;46263;44.726;10.396;2023-12-14T07:36:54;99896.09;;;12.50;82.77
60417;BME280;46263;44.726;10.396;2023-12-14T07:39:19;99893.78;;;12.41;82.76
60417;BME280;46263;44.726;10.396;2023-12-14T07:41:45;99898.13;;;12.50;82.98
60417;BME280;46263;44.726;10.396;2023-12-14T07:44:10;99903.22;;;12.51;82.53
60417;BME280;46263;44.726;10.396;2023-12-14T07:46:36;99901.97;;;12.39;83.06
60417;BME280;46263;44.726;10.396;2023-12-14T07:49:04;99910.03;;;12.43;82.64
60417;BME280;46263;44.726;10.396;2023-12-14T07:51:30;99913.78;;;12.45;81.99
60417;BME280;46263;44.726;10.396;2023-12-14T07:53:55;99915.97;;;12.39;82.25
60417;BME280;46263;44.726;10.396;2023-12-14T07:56:21;99930.41;;;12.43;82.30
60417;BME280;46263;44.726;10.396;2023-12-14T07:58:50;99923.38;;;12.50;82.25
60417;BME280;46263;44.726;10.396;2023-12-14T08:01:16;99926.25;;;12.57;82.24
60417;BME280;46263;44.726;10.396;2023-12-14T08:03:41;99928.50;;;12.59;82.11
60417;BME280;46263;44.726;10.396;2023-12-14T08:06:07;99930.75;;;12.60;81.88
60417;BME280;46263;44.726;10.396;2023-12-14T08:08:33;99937.47;;;12.57;81.67
60417;BME280;46263;44.726;10.396;2023-12-14T08:10:58;99941.22;;;12.60;82.60
60417;BME280;46263;44.726;10.396;2023-12-14T08:13:24;99936.50;;;12.55;81.88
60417;BME280;46263;44.726;10.396;2023-12-14T08:15:49;99948.66;;;12.57;82.53
60417;BME280;46263;44.726;10.396;2023-12-14T08:18:15;99951.25;;;12.55;82.63
60417;BME280;46263;44.726;10.396;2023-12-14T08:20:40;99951.47;;;12.57;82.12
60417;BME280;46263;44.726;10.396;2023-12-14T08:23:06;99959.13;;;12.57;82.43
60417;BME280;46263;44.726;10.396;2023-12-14T08:25:32;99969.81;;;12.58;81.80
60417;BME280;46263;44.726;10.396;2023-12-14T08:27:57;99962.56;;;12.63;81.69
60417;BME280;46263;44.726;10.396;2023-12-14T08:30:23;99967.00;;;12.58;81.99
60417;BME280;46263;44.726;10.396;2023-12-14T08:32:49;99975.81;;;12.62;82.25
60417;BME280;46263;44.726;10.396;2023-12-14T08:35:14;99986.91;;;12.68;82.39
60417;BME280;46263;44.726;10.396;2023-12-14T08:37:40;99982.38;;;12.65;82.44
60417;BME280;46263;44.726;10.396;2023-12-14T08:40:06;99993.78;;;12.67;82.17
60417;BME280;46263;44.726;10.396;2023-12-14T08:42:32;99998.22;;;12.62;82.91
60417;BME280;46263;44.726;10.396;2023-12-14T08:44:58;99997.25;;;12.39;82.59
60417;BME280;46263;44.726;10.396;2023-12-14T08:47:23;100010.81;;;12.48;82.78
60417;BME280;46263;44.726;10.396;2023-12-14T08:49:49;99989.47;;;12.45;82.71
60417;BME280;46263;44.726;10.396;2023-12-14T08:52:15;100007.56;;;12.44;82.37
60417;BME280;46263;44.726;10.396;2023-12-14T08:54:40;99998.31;;;12.49;82.16
60417;BME280;46263;44.726;10.396;2023-12-14T08:57:09;100012.38;;;12.57;82.59
60417;BME280;46263;44.726;10.396;2023-12-14T08:59:34;100010.13;;;12.55;82.58
60417;BME280;46263;44.726;10.396;2023-12-14T09:02:00;100015.28;;;12.64;82.21
60417;BME280;46263;44.726;10.396;2023-12-14T09:04:25;100021.72;;;12.72;82.84
60417;BME280;46263;44.726;10.396;2023-12-14T09:06:52;100026.41;;;12.77;81.87
60417;BME280;46263;44.726;10.396;2023-12-14T09:09:17;100037.91;;;12.66;81.45
60417;BME280;46263;44.726;10.396;2023-12-14T09:11:44;100042.63;;;12.71;81.75
60417;BME280;46263;44.726;10.396;2023-12-14T09:14:10;100051.25;;;12.73;81.61
60417;BME280;46263;44.726;10.396;2023-12-14T09:16:35;100060.03;;;12.57;81.49
60417;BME280;46263;44.726;10.396;2023-12-14T09:19:01;100061.41;;;12.63;81.39
60417;BME280;46263;44.726;10.396;2023-12-14T09:21:26;100071.25;;;12.57;81.23
60417;BME280;46263;44.726;10.396;2023-12-14T09:23:52;100066.75;;;12.54;82.39
60417;BME280;46263;44.726;10.396;2023-12-14T09:26:20;100067.91;;;12.58;82.92
60417;BME280;46263;44.726;10.396;2023-12-14T09:28:46;100062.31;;;12.58;82.63
60417;BME280;46263;44.726;10.396;2023-12-14T09:31:11;100083.63;;;12.61;82.22
60417;BME280;46263;44.726;10.396;2023-12-14T09:33:37;100079.97;;;12.66;81.64
60417;BME280;46263;44.726;10.396;2023-12-14T09:36:03;100081.38;;;12.60;81.87
60417;BME280;46263;44.726;10.396;2023-12-14T09:38:28;100078.19;;;12.56;81.86
60417;BME280;46263;44.726;10.396;2023-12-14T09:40:54;100088.41;;;12.53;82.82
60417;BME280;46263;44.726;10.396;2023-12-14T09:43:20;100097.56;;;12.54;82.93
60417;BME280;46263;44.726;10.396;2023-12-14T09:45:47;100099.44;;;12.51;81.94
60417;BME280;46263;44.726;10.396;2023-12-14T09:48:13;100091.78;;;12.39;83.55
60417;BME280;46263;44.726;10.396;2023-12-14T09:50:40;100108.75;;;12.07;84.45
60417;BME280;46263;44.726;10.396;2023-12-14T09:53:06;100105.59;;;12.37;84.12
60417;BME280;46263;44.726;10.396;2023-12-14T09:55:33;100111.03;;;12.55;83.62
60417;BME280;46263;44.726;10.396;2023-12-14T09:57:58;100111.25;;;12.57;83.62
60417;BME280;46263;44.726;10.396;2023-12-14T10:00:34;100101.16;;;12.41;83.14
60417;BME280;46263;44.726;10.396;2023-12-14T10:05:46;100103.22;;;12.28;83.56
60417;BME280;46263;44.726;10.396;2023-12-14T10:08:12;100099.31;;;12.44;83.35
60417;BME280;46263;44.726;10.396;2023-12-14T10:10:37;100099.22;;;12.49;82.78
60417;BME280;46263;44.726;10.396;2023-12-14T10:13:03;100099.88;;;12.42;83.02
60417;BME280;46263;44.726;10.396;2023-12-14T10:15:29;100097.25;;;12.57;82.91
60417;BME280;46263;44.726;10.396;2023-12-14T10:17:55;100102.91;;;12.77;81.99
60417;BME280;46263;44.726;10.396;2023-12-14T10:20:21;100102.56;;;12.81;81.93
60417;BME280;46263;44.726;10.396;2023-12-14T10:22:52;100108.22;;;13.01;81.31
60417;BME280;46263;44.726;10.396;2023-12-14T10:25:18;100117.31;;;12.94;81.67
60417;BME280;46263;44.726;10.396;2023-12-14T10:27:48;100112.56;;;12.89;81.30
60417;BME280;46263;44.726;10.396;2023-12-14T10:30:16;100117.59;;;13.04;81.25
60417;BME280;46263;44.726;10.396;2023-12-14T10:32:42;100113.03;;;13.14;80.15
60417;BME280;46263;44.726;10.396;2023-12-14T10:35:08;100112.13;;;13.19;80.20
60417;BME280;46263;44.726;10.396;2023-12-14T10:37:37;100111.25;;;13.24;80.03
60417;BME280;46263;44.726;10.396;2023-12-14T10:40:05;100111.19;;;13.37;80.02
60417;BME280;46263;44.726;10.396;2023-12-14T10:42:34;100117.59;;;13.45;79.71
60417;BME280;46263;44.726;10.396;2023-12-14T10:45:02;100117.69;;;13.52;80.09
60417;BME280;46263;44.726;10.396;2023-12-14T10:47:28;100114.31;;;13.53;79.91
60417;BME280;46263;44.726;10.396;2023-12-14T10:49:54;100126.09;;;13.52;79.52
60417;BME280;46263;44.726;10.396;2023-12-14T10:52:22;100135.06;;;13.51;78.47
60417;BME280;46263;44.726;10.396;2023-12-14T10:54:56;100123.28;;;13.52;78.13
60417;BME280;46263;44.726;10.396;2023-12-14T10:57:24;100124.16;;;13.47;79.11
60417;BME280;46263;44.726;10.396;2023-12-14T10:59:49;100119.94;;;13.33;79.59
60417;BME280;46263;44.726;10.396;2023-12-14T11:02:15;100120.16;;;13.15;80.45
60417;BME280;46263;44.726;10.396;2023-12-14T11:05:00;100112.25;;;13.13;81.59
60417;BME280;46263;44.726;10.396;2023-12-14T11:07:48;100120.47;;;12.91;82.56
60417;BME280;46263;44.726;10.396;2023-12-14T11:10:15;100120.88;;;13.15;81.94
60417;BME280;46263;44.726;10.396;2023-12-14T11:12:59;100120.28;;;13.30;81.31
60417;BME280;46263;44.726;10.396;2023-12-14T11:15:28;100118.97;;;13.51;79.95
60417;BME280;46263;44.726;10.396;2023-12-14T11:25:51;100131.19;;;13.81;78.57
60417;BME280;46263;44.726;10.396;2023-12-14T11:28:19;100121.91;;;13.94;78.04
60417;BME280;46263;44.726;10.396;2023-12-14T11:30:45;100132.09;;;14.04;77.90
60417;BME280;46263;44.726;10.396;2023-12-14T11:33:11;100127.47;;;13.86;79.21
60417;BME280;46263;44.726;10.396;2023-12-14T11:35:37;100134.78;;;13.89;78.84
60417;BME280;46263;44.726;10.396;2023-12-14T11:38:03;100142.59;;;13.55;78.83
60417;BME280;46263;44.726;10.396;2023-12-14T11:40:36;100144.13;;;13.56;79.41
60417;BME280;46263;44.726;10.396;2023-12-14T11:43:02;100143.00;;;13.59;79.54
60417;BME280;46263;44.726;10.396;2023-12-14T11:45:34;100149.91;;;13.58;79.20
60417;BME280;46263;44.726;10.396;2023-12-14T11:47:59;100152.72;;;13.38;78.85
60417;BME280;46263;44.726;10.396;2023-12-14T11:50:27;100150.47;;;13.57;78.79
60417;BME280;46263;44.726;10.396;2023-12-14T11:52:52;100150.72;;;13.66;77.52
60417;BME280;46263;44.726;10.396;2023-12-14T11:55:21;100148.34;;;13.70;77.41
60417;BME280;46263;44.726;10.396;2023-12-14T11:57:47;100149.00;;;13.84;76.71
60417;BME280;46263;44.726;10.396;2023-12-14T12:00:14;100154.34;;;13.74;75.40
60417;BME280;46263;44.726;10.396;2023-12-14T12:02:40;100170.19;;;13.85;75.97
60417;BME280;46263;44.726;10.396;2023-12-14T12:05:06;100164.66;;;14.00;75.85
60417;BME280;46263;44.726;10.396;2023-12-14T12:07:32;100164.38;;;14.11;75.51
60417;BME280;46263;44.726;10.396;2023-12-14T12:09:59;100166.69;;;13.71;75.31
60417;BME280;46263;44.726;10.396;2023-12-14T12:12:25;100162.38;;;13.30;77.55
60417;BME280;46263;44.726;10.396;2023-12-14T12:14:50;100165.41;;;13.52;78.70
60417;BME280;46263;44.726;10.396;2023-12-14T12:17:18;100165.41;;;13.52;78.03
60417;BME280;46263;44.726;10.396;2023-12-14T12:19:45;100168.88;;;13.65;77.39
60417;BME280;46263;44.726;10.396;2023-12-14T12:22:11;100174.09;;;13.82;75.95
60417;BME280;46263;44.726;10.396;2023-12-14T12:24:36;100176.63;;;13.93;75.61
60417;BME280;46263;44.726;10.396;2023-12-14T12:27:03;100173.25;;;13.94;75.36
60417;BME280;46263;44.726;10.396;2023-12-14T12:29:30;100167.56;;;13.87;75.83
60417;BME280;46263;44.726;10.396;2023-12-14T12:31:56;100163.25;;;13.86;76.18
60417;BME280;46263;44.726;10.396;2023-12-14T12:34:21;100163.09;;;13.91;76.75
60417;BME280;46263;44.726;10.396;2023-12-14T12:36:47;100164.25;;;13.68;77.47
60417;BME280;46263;44.726;10.396;2023-12-14T12:39:13;100168.69;;;13.43;78.77
60417;BME280;46263;44.726;10.396;2023-12-14T12:41:38;100162.88;;;13.61;77.85
60417;BME280;46263;44.726;10.396;2023-12-14T12:44:05;100164.50;;;13.77;76.71
60417;BME280;46263;44.726;10.396;2023-12-14T12:46:37;100164.03;;;14.14;75.37
60417;BME280;46263;44.726;10.396;2023-12-14T12:49:04;100169.72;;;14.01;74.92
60417;BME280;46263;44.726;10.396;2023-12-14T12:51:31;100178.22;;;14.09;74.63
60417;BME280;46263;44.726;10.396;2023-12-14T12:53:58;100177.78;;;14.25;73.82
60417;BME280;46263;44.726;10.396;2023-12-14T12:56:25;100183.34;;;14.18;76.40